sensor_id;sensor_type;location;lat;lon;timestamp;temperature;humidity
28520;DHT22;15732;48.534;20.382;2023-03-31T00:01:18;7.40;99.90
28520;DHT22;15732;48.534;20.382;2023-03-31T00:03:46;7.40;99.90
28520;DHT22;15732;48.534;20.382;2023-03-31T00:06:14;7.30;99.90
28520;DHT22;15732;48.534;20.382;2023-03-31T00:08:47;7.30;99.90
28520;DHT22;15732;48.534;20.382;2023-03-31T00:11:17;7.20;99.90
28520;DHT22;15732;48.534;20.382;2023-03-31T00:13:48;7.30;99.90
28520;DHT22;15732;48.534;20.382;2023-03-31T00:16:19;7.30;99.90
28520;DHT22;15732;48.534;20.382;2023-03-31T00:18:50;7.40;99.90
28520;DHT22;15732;48.534;20.382;2023-03-31T00:21:23;7.40;99.90
28520;DHT22;15732;48.534;20.382;2023-03-31T00:23:55;7.40;99.90
28520;DHT22;15732;48.534;20.382;2023-03-31T00:26:22;7.40;99.90
28520;DHT22;15732;48.534;20.382;2023-03-31T00:28:51;7.50;99.90
28520;DHT22;15732;48.534;20.382;2023-03-31T00:31:18;7.50;99.90
28520;DHT22;15732;48.534;20.382;2023-03-31T00:33:46;7.60;99.90
28520;DHT22;15732;48.534;20.382;2023-03-31T00:36:13;7.50;99.90
28520;DHT22;15732;48.534;20.382;2023-03-31T00:38:43;7.60;99.90
28520;DHT22;15732;48.534;20.382;2023-03-31T00:41:12;7.60;99.90
28520;DHT22;15732;48.534;20.382;2023-03-31T00:43:40;7.60;99.90
28520;DHT22;15732;48.534;20.382;2023-03-31T00:46:29;7.60;99.90
28520;DHT22;15732;48.534;20.382;2023-03-31T00:48:57;7.60;99.90
28520;DHT22;15732;48.534;20.382;2023-03-31T00:51:27;7.60;99.90
28520;DHT22;15732;48.534;20.382;2023-03-31T00:54:01;7.70;99.90
28520;DHT22;15732;48.534;20.382;2023-03-31T00:56:34;7.70;99.90
28520;DHT22;15732;48.534;20.382;2023-03-31T00:59:10;7.70;99.90
28520;DHT22;15732;48.534;20.382;2023-03-31T01:01:44;7.70;99.90
28520;DHT22;15732;48.534;20.382;2023-03-31T01:04:13;7.70;99.90
28520;DHT22;15732;48.534;20.382;2023-03-31T01:06:56;7.70;99.90
28520;DHT22;15732;48.534;20.382;2023-03-31T01:09:29;7.70;99.90
28520;DHT22;15732;48.534;20.382;2023-03-31T01:11:56;7.70;99.90
28520;DHT22;15732;48.534;20.382;2023-03-31T01:14:24;7.70;99.90
28520;DHT22;15732;48.534;20.382;2023-03-31T01:16:56;7.70;99.90
28520;DHT22;15732;48.534;20.382;2023-03-31T01:28:07;7.70;99.90
28520;DHT22;15732;48.534;20.382;2023-03-31T01:47:58;7.70;99.90
28520;DHT22;15732;48.534;20.382;2023-03-31T01:51:09;7.70;99.90
28520;DHT22;15732;48.534;20.382;2023-03-31T01:56:40;7.70;99.90
28520;DHT22;15732;48.534;20.382;2023-03-31T02:05:22;7.70;99.90
28520;DHT22;15732;48.534;20.382;2023-03-31T02:07:56;7.70;99.90
28520;DHT22;15732;48.534;20.382;2023-03-31T02:10:27;7.70;99.90
28520;DHT22;15732;48.534;20.382;2023-03-31T02:13:14;7.70;99.90
28520;DHT22;15732;48.534;20.382;2023-03-31T02:16:25;7.70;99.90
28520;DHT22;15732;48.534;20.382;2023-03-31T02:19:01;7.70;99.90
28520;DHT22;15732;48.534;20.382;2023-03-31T02:21:36;7.60;99.90
28520;DHT22;15732;48.534;20.382;2023-03-31T02:24:42;7.60;99.90
28520;DHT22;15732;48.534;20.382;2023-03-31T02:27:50;7.60;99.90
28520;DHT22;15732;48.534;20.382;2023-03-31T02:33:36;7.70;99.90
28520;DHT22;15732;48.534;20.382;2023-03-31T02:36:27;7.60;99.90
28520;DHT22;15732;48.534;20.382;2023-03-31T02:39:04;7.60;99.90
28520;DHT22;15732;48.534;20.382;2023-03-31T02:41:37;7.70;99.90
28520;DHT22;15732;48.534;20.382;2023-03-31T02:44:04;7.70;99.90
28520;DHT22;15732;48.534;20.382;2023-03-31T02:46:31;7.70;99.90
28520;DHT22;15732;48.534;20.382;2023-03-31T02:49:05;7.70;99.90
28520;DHT22;15732;48.534;20.382;2023-03-31T02:54:45;7.60;99.90
28520;DHT22;15732;48.534;20.382;2023-03-31T03:00:33;7.60;99.90
28520;DHT22;15732;48.534;20.382;2023-03-31T03:11:45;7.60;99.90
28520;DHT22;15732;48.534;20.382;2023-03-31T03:14:48;7.60;99.90
28520;DHT22;15732;48.534;20.382;2023-03-31T03:17:28;7.60;99.90
28520;DHT22;15732;48.534;20.382;2023-03-31T03:19:59;7.60;99.90
28520;DHT22;15732;48.534;20.382;2023-03-31T03:22:31;7.60;99.90
28520;DHT22;15732;48.534;20.382;2023-03-31T03:24:59;7.60;99.90
28520;DHT22;15732;48.534;20.382;2023-03-31T03:27:26;7.60;99.90
28520;DHT22;15732;48.534;20.382;2023-03-31T03:29:54;7.60;99.90
28520;DHT22;15732;48.534;20.382;2023-03-31T03:32:22;7.60;99.90
28520;DHT22;15732;48.534;20.382;2023-03-31T03:34:49;7.60;99.90
28520;DHT22;15732;48.534;20.382;2023-03-31T03:37:17;7.60;99.90
28520;DHT22;15732;48.534;20.382;2023-03-31T03:39:44;7.60;99.90
28520;DHT22;15732;48.534;20.382;2023-03-31T03:42:12;7.60;99.90
28520;DHT22;15732;48.534;20.382;2023-03-31T03:44:43;7.60;99.90
28520;DHT22;15732;48.534;20.382;2023-03-31T03:47:14;7.50;99.90
28520;DHT22;15732;48.534;20.382;2023-03-31T03:49:41;7.50;99.90
28520;DHT22;15732;48.534;20.382;2023-03-31T03:52:12;7.40;99.90
28520;DHT22;15732;48.534;20.382;2023-03-31T03:54:39;7.40;99.90
28520;DHT22;15732;48.534;20.382;2023-03-31T03:57:07;7.40;99.90
28520;DHT22;15732;48.534;20.382;2023-03-31T03:59:34;7.40;99.90
28520;DHT22;15732;48.534;20.382;2023-03-31T04:02:06;7.40;99.90
28520;DHT22;15732;48.534;20.382;2023-03-31T04:04:33;7.40;99.90
28520;DHT22;15732;48.534;20.382;2023-03-31T04:07:00;7.50;99.90
28520;DHT22;15732;48.534;20.382;2023-03-31T04:09:28;7.50;99.90
28520;DHT22;15732;48.534;20.382;2023-03-31T04:11:55;7.60;99.90
28520;DHT22;15732;48.534;20.382;2023-03-31T04:14:22;7.60;99.90
28520;DHT22;15732;48.534;20.382;2023-03-31T04:16:51;7.60;99.90
28520;DHT22;15732;48.534;20.382;2023-03-31T04:19:18;7.60;99.90
28520;DHT22;15732;48.534;20.382;2023-03-31T04:21:47;7.60;99.90
28520;DHT22;15732;48.534;20.382;2023-03-31T04:24:25;7.70;99.90
28520;DHT22;15732;48.534;20.382;2023-03-31T04:26:59;7.70;99.90
28520;DHT22;15732;48.534;20.382;2023-03-31T04:29:26;7.70;99.90
28520;DHT22;15732;48.534;20.382;2023-03-31T04:31:54;7.70;99.90
28520;DHT22;15732;48.534;20.382;2023-03-31T04:34:25;7.70;99.90
28520;DHT22;15732;48.534;20.382;2023-03-31T04:37:01;7.70;99.90
28520;DHT22;15732;48.534;20.382;2023-03-31T04:39:29;7.70;99.90
28520;DHT22;15732;48.534;20.382;2023-03-31T04:41:57;7.70;99.90
28520;DHT22;15732;48.534;20.382;2023-03-31T04:44:28;7.70;99.90
28520;DHT22;15732;48.534;20.382;2023-03-31T04:47:00;7.70;99.90
28520;DHT22;15732;48.534;20.382;2023-03-31T04:49:28;7.70;99.90
28520;DHT22;15732;48.534;20.382;2023-03-31T04:52:01;7.70;99.90
28520;DHT22;15732;48.534;20.382;2023-03-31T04:54:28;7.70;99.90
28520;DHT22;15732;48.534;20.382;2023-03-31T04:57:00;7.70;99.90
28520;DHT22;15732;48.534;20.382;2023-03-31T04:59:31;7.80;99.90
28520;DHT22;15732;48.534;20.382;2023-03-31T05:01:59;7.80;99.90
28520;DHT22;15732;48.534;20.382;2023-03-31T05:04:30;7.80;99.90
28520;DHT22;15732;48.534;20.382;2023-03-31T05:07:17;7.80;99.90
28520;DHT22;15732;48.534;20.382;2023-03-31T05:09:44;7.80;99.90
28520;DHT22;15732;48.534;20.382;2023-03-31T05:12:12;7.80;99.90
28520;DHT22;15732;48.534;20.382;2023-03-31T05:14:44;7.80;99.90
28520;DHT22;15732;48.534;20.382;2023-03-31T05:17:11;7.80;99.90
28520;DHT22;15732;48.534;20.382;2023-03-31T05:19:39;7.80;99.90
28520;DHT22;15732;48.534;20.382;2023-03-31T05:22:06;7.90;99.90
28520;DHT22;15732;48.534;20.382;2023-03-31T05:24:37;7.90;99.90
28520;DHT22;15732;48.534;20.382;2023-03-31T05:27:05;7.90;99.90
28520;DHT22;15732;48.534;20.382;2023-03-31T05:29:36;7.80;99.90
28520;DHT22;15732;48.534;20.382;2023-03-31T05:32:03;7.90;99.90
28520;DHT22;15732;48.534;20.382;2023-03-31T05:34:31;7.90;99.90
28520;DHT22;15732;48.534;20.382;2023-03-31T05:37:03;7.90;99.90
28520;DHT22;15732;48.534;20.382;2023-03-31T05:39:30;7.90;99.90
28520;DHT22;15732;48.534;20.382;2023-03-31T05:42:02;7.90;99.90
28520;DHT22;15732;48.534;20.382;2023-03-31T05:44:31;7.90;99.90
28520;DHT22;15732;48.534;20.382;2023-03-31T05:46:59;7.90;99.90
28520;DHT22;15732;48.534;20.382;2023-03-31T05:49:26;7.90;99.90
28520;DHT22;15732;48.534;20.382;2023-03-31T05:51:57;8.00;99.90
28520;DHT22;15732;48.534;20.382;2023-03-31T05:54:25;8.00;99.90
28520;DHT22;15732;48.534;20.382;2023-03-31T05:56:52;8.00;99.90
28520;DHT22;15732;48.534;20.382;2023-03-31T05:59:19;8.00;99.90
28520;DHT22;15732;48.534;20.382;2023-03-31T06:01:46;8.00;99.90
28520;DHT22;15732;48.534;20.382;2023-03-31T06:04:13;8.00;99.90
28520;DHT22;15732;48.534;20.382;2023-03-31T06:06:44;8.10;99.90
28520;DHT22;15732;48.534;20.382;2023-03-31T06:09:12;8.00;99.90
28520;DHT22;15732;48.534;20.382;2023-03-31T06:11:39;8.00;99.90
28520;DHT22;15732;48.534;20.382;2023-03-31T06:14:07;8.00;99.90
28520;DHT22;15732;48.534;20.382;2023-03-31T06:16:34;8.10;99.90
28520;DHT22;15732;48.534;20.382;2023-03-31T06:19:01;8.00;99.90
28520;DHT22;15732;48.534;20.382;2023-03-31T06:21:29;8.00;99.90
28520;DHT22;15732;48.534;20.382;2023-03-31T06:24:00;8.00;99.90
28520;DHT22;15732;48.534;20.382;2023-03-31T06:26:28;8.00;99.90
28520;DHT22;15732;48.534;20.382;2023-03-31T06:28:55;8.00;99.90
28520;DHT22;15732;48.534;20.382;2023-03-31T06:31:23;8.00;99.90
28520;DHT22;15732;48.534;20.382;2023-03-31T06:33:51;8.10;99.90
28520;DHT22;15732;48.534;20.382;2023-03-31T06:36:20;8.10;99.90
28520;DHT22;15732;48.534;20.382;2023-03-31T06:38:48;8.10;99.90
28520;DHT22;15732;48.534;20.382;2023-03-31T06:41:19;8.10;99.90
28520;DHT22;15732;48.534;20.382;2023-03-31T06:43:48;8.10;99.90
28520;DHT22;15732;48.534;20.382;2023-03-31T06:46:16;8.10;99.90
28520;DHT22;15732;48.534;20.382;2023-03-31T06:48:47;8.20;99.90
28520;DHT22;15732;48.534;20.382;2023-03-31T06:51:18;8.20;99.90
28520;DHT22;15732;48.534;20.382;2023-03-31T06:53:46;8.30;99.90
28520;DHT22;15732;48.534;20.382;2023-03-31T06:56:13;8.30;99.90
28520;DHT22;15732;48.534;20.382;2023-03-31T06:58:41;8.30;99.90
28520;DHT22;15732;48.534;20.382;2023-03-31T07:01:08;8.40;99.90
28520;DHT22;15732;48.534;20.382;2023-03-31T07:03:37;8.40;99.90
28520;DHT22;15732;48.534;20.382;2023-03-31T07:06:08;8.50;99.90
28520;DHT22;15732;48.534;20.382;2023-03-31T07:08:35;8.50;99.90
28520;DHT22;15732;48.534;20.382;2023-03-31T07:11:03;8.60;99.90
28520;DHT22;15732;48.534;20.382;2023-03-31T07:13:30;8.60;99.90
28520;DHT22;15732;48.534;20.382;2023-03-31T07:16:01;8.60;99.90
28520;DHT22;15732;48.534;20.382;2023-03-31T07:18:30;8.60;99.90
28520;DHT22;15732;48.534;20.382;2023-03-31T07:21:03;8.60;99.90
28520;DHT22;15732;48.534;20.382;2023-03-31T07:23:33;8.60;99.90
28520;DHT22;15732;48.534;20.382;2023-03-31T07:26:01;8.60;99.90
28520;DHT22;15732;48.534;20.382;2023-03-31T07:28:29;8.60;99.90
28520;DHT22;15732;48.534;20.382;2023-03-31T07:30:56;8.60;99.90
28520;DHT22;15732;48.534;20.382;2023-03-31T07:33:27;8.70;99.90
28520;DHT22;15732;48.534;20.382;2023-03-31T07:35:55;8.70;99.90
28520;DHT22;15732;48.534;20.382;2023-03-31T07:38:26;8.70;99.90
28520;DHT22;15732;48.534;20.382;2023-03-31T07:40:54;8.80;99.90
28520;DHT22;15732;48.534;20.382;2023-03-31T07:43:21;8.80;99.90
28520;DHT22;15732;48.534;20.382;2023-03-31T07:45:49;8.80;99.90
28520;DHT22;15732;48.534;20.382;2023-03-31T07:48:16;8.90;99.90
28520;DHT22;15732;48.534;20.382;2023-03-31T07:50:43;8.90;99.90
28520;DHT22;15732;48.534;20.382;2023-03-31T07:53:10;8.90;99.90
28520;DHT22;15732;48.534;20.382;2023-03-31T07:55:40;8.90;99.90
28520;DHT22;15732;48.534;20.382;2023-03-31T07:58:08;8.90;99.90
28520;DHT22;15732;48.534;20.382;2023-03-31T08:00:40;8.80;99.90
28520;DHT22;15732;48.534;20.382;2023-03-31T08:03:07;8.90;99.90
28520;DHT22;15732;48.534;20.382;2023-03-31T08:05:34;8.90;99.90
28520;DHT22;15732;48.534;20.382;2023-03-31T08:08:02;8.90;99.90
28520;DHT22;15732;48.534;20.382;2023-03-31T08:10:29;8.90;99.90
28520;DHT22;15732;48.534;20.382;2023-03-31T08:13:00;8.90;99.90
28520;DHT22;15732;48.534;20.382;2023-03-31T08:15:28;9.00;99.90
28520;DHT22;15732;48.534;20.382;2023-03-31T08:18:00;9.00;99.90
28520;DHT22;15732;48.534;20.382;2023-03-31T08:20:27;9.10;99.90
28520;DHT22;15732;48.534;20.382;2023-03-31T08:22:54;9.10;99.90
28520;DHT22;15732;48.534;20.382;2023-03-31T08:25:25;9.20;99.90
28520;DHT22;15732;48.534;20.382;2023-03-31T08:27:53;9.30;99.90
28520;DHT22;15732;48.534;20.382;2023-03-31T08:30:21;9.30;99.90
28520;DHT22;15732;48.534;20.382;2023-03-31T08:32:48;9.30;99.90
28520;DHT22;15732;48.534;20.382;2023-03-31T08:35:16;9.30;99.90
28520;DHT22;15732;48.534;20.382;2023-03-31T08:37:47;9.40;99.90
28520;DHT22;15732;48.534;20.382;2023-03-31T08:40:19;9.50;99.90
28520;DHT22;15732;48.534;20.382;2023-03-31T08:42:52;9.60;99.90
28520;DHT22;15732;48.534;20.382;2023-03-31T08:48:01;9.70;99.90
28520;DHT22;15732;48.534;20.382;2023-03-31T08:51:25;9.80;99.90
28520;DHT22;15732;48.534;20.382;2023-03-31T08:54:12;9.80;99.90
28520;DHT22;15732;48.534;20.382;2023-03-31T08:56:47;9.90;99.90
28520;DHT22;15732;48.534;20.382;2023-03-31T09:01:55;9.90;99.90
28520;DHT22;15732;48.534;20.382;2023-03-31T09:08:18;10.00;99.90
28520;DHT22;15732;48.534;20.382;2023-03-31T09:15:39;10.30;99.90
28520;DHT22;15732;48.534;20.382;2023-03-31T09:18:33;10.40;99.90
28520;DHT22;15732;48.534;20.382;2023-03-31T09:21:06;10.50;99.90
28520;DHT22;15732;48.534;20.382;2023-03-31T09:23:39;10.50;99.90
28520;DHT22;15732;48.534;20.382;2023-03-31T09:26:24;10.60;99.90
28520;DHT22;15732;48.534;20.382;2023-03-31T09:28:54;10.60;99.90
28520;DHT22;15732;48.534;20.382;2023-03-31T09:31:23;10.60;99.90
28520;DHT22;15732;48.534;20.382;2023-03-31T09:33:57;10.60;99.90
28520;DHT22;15732;48.534;20.382;2023-03-31T09:36:26;10.70;99.90
28520;DHT22;15732;48.534;20.382;2023-03-31T09:38:57;10.70;99.90
28520;DHT22;15732;48.534;20.382;2023-03-31T09:41:24;10.80;99.90
28520;DHT22;15732;48.534;20.382;2023-03-31T09:43:52;10.90;99.90
28520;DHT22;15732;48.534;20.382;2023-03-31T09:46:29;11.00;99.90
28520;DHT22;15732;48.534;20.382;2023-03-31T09:49:12;11.20;99.90
28520;DHT22;15732;48.534;20.382;2023-03-31T09:51:46;11.30;99.90
28520;DHT22;15732;48.534;20.382;2023-03-31T09:54:37;11.30;99.90
28520;DHT22;15732;48.534;20.382;2023-03-31T09:57:23;11.40;99.90
28520;DHT22;15732;48.534;20.382;2023-03-31T10:00:16;11.40;99.90
28520;DHT22;15732;48.534;20.382;2023-03-31T10:08:37;11.40;99.90
28520;DHT22;15732;48.534;20.382;2023-03-31T10:16:13;11.50;99.90
28520;DHT22;15732;48.534;20.382;2023-03-31T10:18:41;11.50;99.90
28520;DHT22;15732;48.534;20.382;2023-03-31T10:21:23;11.60;99.90
28520;DHT22;15732;48.534;20.382;2023-03-31T10:23:53;11.70;99.90
28520;DHT22;15732;48.534;20.382;2023-03-31T10:26:46;11.80;99.90
28520;DHT22;15732;48.534;20.382;2023-03-31T10:29:30;11.90;99.90
28520;DHT22;15732;48.534;20.382;2023-03-31T10:32:03;11.90;99.90
28520;DHT22;15732;48.534;20.382;2023-03-31T10:34:39;12.00;99.90
28520;DHT22;15732;48.534;20.382;2023-03-31T10:37:13;12.10;99.90
28520;DHT22;15732;48.534;20.382;2023-03-31T10:39:46;12.20;99.90
28520;DHT22;15732;48.534;20.382;2023-03-31T10:42:21;12.30;99.90
28520;DHT22;15732;48.534;20.382;2023-03-31T10:44:49;12.30;99.90
28520;DHT22;15732;48.534;20.382;2023-03-31T10:47:20;12.40;99.90
28520;DHT22;15732;48.534;20.382;2023-03-31T10:49:49;12.50;99.90
28520;DHT22;15732;48.534;20.382;2023-03-31T10:52:25;12.60;99.90
28520;DHT22;15732;48.534;20.382;2023-03-31T10:54:59;12.60;99.90
28520;DHT22;15732;48.534;20.382;2023-03-31T11:14:05;13.00;99.90
28520;DHT22;15732;48.534;20.382;2023-03-31T11:22:15;13.20;99.90
28520;DHT22;15732;48.534;20.382;2023-03-31T11:30:18;13.30;99.90
28520;DHT22;15732;48.534;20.382;2023-03-31T11:33:13;13.30;99.90
28520;DHT22;15732;48.534;20.382;2023-03-31T11:36:19;13.30;99.90
28520;DHT22;15732;48.534;20.382;2023-03-31T11:41:49;13.30;99.90
28520;DHT22;15732;48.534;20.382;2023-03-31T11:44:19;13.40;99.90
28520;DHT22;15732;48.534;20.382;2023-03-31T11:46:55;13.40;99.90
28520;DHT22;15732;48.534;20.382;2023-03-31T11:49:28;13.40;99.90
28520;DHT22;15732;48.534;20.382;2023-03-31T11:52:01;13.30;99.90
28520;DHT22;15732;48.534;20.382;2023-03-31T12:00:16;13.30;99.90
28520;DHT22;15732;48.534;20.382;2023-03-31T12:02:46;13.30;99.90
28520;DHT22;15732;48.534;20.382;2023-03-31T12:05:17;13.30;99.90
28520;DHT22;15732;48.534;20.382;2023-03-31T12:08:03;13.30;99.90
28520;DHT22;15732;48.534;20.382;2023-03-31T12:10:36;13.40;99.90
28520;DHT22;15732;48.534;20.382;2023-03-31T12:18:48;13.60;99.90
28520;DHT22;15732;48.534;20.382;2023-03-31T12:21:22;13.70;99.90
28520;DHT22;15732;48.534;20.382;2023-03-31T12:23:54;13.80;99.90
28520;DHT22;15732;48.534;20.382;2023-03-31T12:32:19;14.10;99.90
28520;DHT22;15732;48.534;20.382;2023-03-31T12:35:04;14.10;99.90
28520;DHT22;15732;48.534;20.382;2023-03-31T12:42:47;14.20;99.90
28520;DHT22;15732;48.534;20.382;2023-03-31T12:45:34;14.30;99.90
28520;DHT22;15732;48.534;20.382;2023-03-31T12:51:36;14.40;99.90
28520;DHT22;15732;48.534;20.382;2023-03-31T12:59:40;14.40;99.90
28520;DHT22;15732;48.534;20.382;2023-03-31T13:04:41;14.40;99.90
28520;DHT22;15732;48.534;20.382;2023-03-31T13:09:57;14.50;99.90
28520;DHT22;15732;48.534;20.382;2023-03-31T13:12:28;14.50;99.90
28520;DHT22;15732;48.534;20.382;2023-03-31T13:14:59;14.60;99.90
28520;DHT22;15732;48.534;20.382;2023-03-31T13:17:31;14.70;99.90
28520;DHT22;15732;48.534;20.382;2023-03-31T13:20:34;14.70;99.90
28520;DHT22;15732;48.534;20.382;2023-03-31T13:23:21;14.80;99.90
28520;DHT22;15732;48.534;20.382;2023-03-31T13:25:54;14.80;99.90
28520;DHT22;15732;48.534;20.382;2023-03-31T13:30:59;14.80;99.90
28520;DHT22;15732;48.534;20.382;2023-03-31T13:33:45;14.80;99.90
28520;DHT22;15732;48.534;20.382;2023-03-31T14:03:26;15.00;99.90
28520;DHT22;15732;48.534;20.382;2023-03-31T14:06:29;15.00;99.90
28520;DHT22;15732;48.534;20.382;2023-03-31T14:09:53;14.90;99.90
28520;DHT22;15732;48.534;20.382;2023-03-31T14:11:54;14.90;99.90
28520;DHT22;15732;48.534;20.382;2023-03-31T14:14:24;14.90;99.90
28520;DHT22;15732;48.534;20.382;2023-03-31T14:16:55;14.90;99.90
28520;DHT22;15732;48.534;20.382;2023-03-31T14:39:51;15.00;99.90
28520;DHT22;15732;48.534;20.382;2023-03-31T14:42:25;15.00;99.90
28520;DHT22;15732;48.534;20.382;2023-03-31T14:45:00;15.00;99.90
28520;DHT22;15732;48.534;20.382;2023-03-31T14:47:28;15.00;99.90
28520;DHT22;15732;48.534;20.382;2023-03-31T14:50:21;15.00;99.90
28520;DHT22;15732;48.534;20.382;2023-03-31T14:52:53;15.00;99.90
28520;DHT22;15732;48.534;20.382;2023-03-31T14:55:26;15.00;99.90
28520;DHT22;15732;48.534;20.382;2023-03-31T14:57:55;14.90;99.90
28520;DHT22;15732;48.534;20.382;2023-03-31T15:00:31;14.90;99.90
28520;DHT22;15732;48.534;20.382;2023-03-31T15:03:06;14.90;99.90
28520;DHT22;15732;48.534;20.382;2023-03-31T15:05:36;14.90;99.90
28520;DHT22;15732;48.534;20.382;2023-03-31T15:08:14;14.90;99.90
28520;DHT22;15732;48.534;20.382;2023-03-31T15:11:07;14.90;99.90
28520;DHT22;15732;48.534;20.382;2023-03-31T15:13:41;14.90;99.90
28520;DHT22;15732;48.534;20.382;2023-03-31T15:16:36;15.00;99.90
28520;DHT22;15732;48.534;20.382;2023-03-31T15:19:22;15.00;99.90
28520;DHT22;15732;48.534;20.382;2023-03-31T15:21:57;15.00;99.90
28520;DHT22;15732;48.534;20.382;2023-03-31T15:24:27;15.10;99.90
28520;DHT22;15732;48.534;20.382;2023-03-31T15:27:05;15.00;99.90
28520;DHT22;15732;48.534;20.382;2023-03-31T15:29:41;15.10;99.90
28520;DHT22;15732;48.534;20.382;2023-03-31T15:34:49;15.00;99.90
28520;DHT22;15732;48.534;20.382;2023-03-31T15:37:26;15.10;99.90
28520;DHT22;15732;48.534;20.382;2023-03-31T15:39:58;15.00;99.90
28520;DHT22;15732;48.534;20.382;2023-03-31T15:42:26;15.10;99.90
28520;DHT22;15732;48.534;20.382;2023-03-31T15:44:56;15.10;99.90
28520;DHT22;15732;48.534;20.382;2023-03-31T15:47:37;15.00;99.90
28520;DHT22;15732;48.534;20.382;2023-03-31T15:52:37;15.00;99.90
28520;DHT22;15732;48.534;20.382;2023-03-31T15:57:53;14.80;99.90
28520;DHT22;15732;48.534;20.382;2023-03-31T16:00:39;14.70;99.90
28520;DHT22;15732;48.534;20.382;2023-03-31T16:03:34;14.60;99.90
28520;DHT22;15732;48.534;20.382;2023-03-31T16:06:35;14.50;99.90
28520;DHT22;15732;48.534;20.382;2023-03-31T16:09:08;14.40;99.90
28520;DHT22;15732;48.534;20.382;2023-03-31T16:11:40;14.30;99.90
28520;DHT22;15732;48.534;20.382;2023-03-31T16:14:14;14.20;99.90
28520;DHT22;15732;48.534;20.382;2023-03-31T16:16:48;14.20;99.90
28520;DHT22;15732;48.534;20.382;2023-03-31T16:19:19;14.10;99.90
28520;DHT22;15732;48.534;20.382;2023-03-31T16:21:48;14.10;99.90
28520;DHT22;15732;48.534;20.382;2023-03-31T16:24:31;14.10;99.90
28520;DHT22;15732;48.534;20.382;2023-03-31T16:27:03;14.00;99.90
28520;DHT22;15732;48.534;20.382;2023-03-31T16:29:36;14.00;99.90
28520;DHT22;15732;48.534;20.382;2023-03-31T16:32:15;14.00;99.90
28520;DHT22;15732;48.534;20.382;2023-03-31T16:35:00;14.00;99.90
28520;DHT22;15732;48.534;20.382;2023-03-31T16:37:28;14.00;99.90
28520;DHT22;15732;48.534;20.382;2023-03-31T16:39:59;13.90;99.90
28520;DHT22;15732;48.534;20.382;2023-03-31T16:42:30;13.90;99.90
28520;DHT22;15732;48.534;20.382;2023-03-31T16:44:58;13.90;99.90
28520;DHT22;15732;48.534;20.382;2023-03-31T16:47:25;13.80;99.90
28520;DHT22;15732;48.534;20.382;2023-03-31T16:49:52;13.80;99.90
28520;DHT22;15732;48.534;20.382;2023-03-31T16:52:20;13.70;99.90
28520;DHT22;15732;48.534;20.382;2023-03-31T16:54:47;13.70;99.90
28520;DHT22;15732;48.534;20.382;2023-03-31T16:57:15;13.70;99.90
28520;DHT22;15732;48.534;20.382;2023-03-31T16:59:46;13.60;99.90
28520;DHT22;15732;48.534;20.382;2023-03-31T17:02:13;13.60;99.90
28520;DHT22;15732;48.534;20.382;2023-03-31T17:04:41;13.60;99.90
28520;DHT22;15732;48.534;20.382;2023-03-31T17:07:08;13.60;99.90
28520;DHT22;15732;48.534;20.382;2023-03-31T17:09:35;13.50;99.90
28520;DHT22;15732;48.534;20.382;2023-03-31T17:12:07;13.50;99.90
28520;DHT22;15732;48.534;20.382;2023-03-31T17:14:38;13.50;99.90
28520;DHT22;15732;48.534;20.382;2023-03-31T17:17:06;13.50;99.90
28520;DHT22;15732;48.534;20.382;2023-03-31T17:19:33;13.40;99.90
28520;DHT22;15732;48.534;20.382;2023-03-31T17:22:05;13.40;99.90
28520;DHT22;15732;48.534;20.382;2023-03-31T17:24:32;13.30;99.90
28520;DHT22;15732;48.534;20.382;2023-03-31T17:27:00;13.20;99.90
28520;DHT22;15732;48.534;20.382;2023-03-31T17:29:31;13.20;99.90
28520;DHT22;15732;48.534;20.382;2023-03-31T17:31:59;13.10;99.90
28520;DHT22;15732;48.534;20.382;2023-03-31T17:34:30;13.10;99.90
28520;DHT22;15732;48.534;20.382;2023-03-31T17:36:57;13.00;99.90
28520;DHT22;15732;48.534;20.382;2023-03-31T17:39:24;13.00;99.90
28520;DHT22;15732;48.534;20.382;2023-03-31T17:41:53;13.00;99.90
28520;DHT22;15732;48.534;20.382;2023-03-31T17:44:20;13.00;99.90
28520;DHT22;15732;48.534;20.382;2023-03-31T17:46:48;12.90;99.90
28520;DHT22;15732;48.534;20.382;2023-03-31T17:49:19;12.90;99.90
28520;DHT22;15732;48.534;20.382;2023-03-31T17:51:46;12.90;99.90
28520;DHT22;15732;48.534;20.382;2023-03-31T17:54:18;12.90;99.90
28520;DHT22;15732;48.534;20.382;2023-03-31T17:56:45;12.90;99.90
28520;DHT22;15732;48.534;20.382;2023-03-31T17:59:16;12.80;99.90
28520;DHT22;15732;48.534;20.382;2023-03-31T18:01:44;12.80;99.90
28520;DHT22;15732;48.534;20.382;2023-03-31T18:04:12;12.80;99.90
28520;DHT22;15732;48.534;20.382;2023-03-31T18:06:40;12.80;99.90
28520;DHT22;15732;48.534;20.382;2023-03-31T18:09:07;12.80;99.90
28520;DHT22;15732;48.534;20.382;2023-03-31T18:11:35;12.70;99.90
28520;DHT22;15732;48.534;20.382;2023-03-31T18:14:07;12.70;99.90
28520;DHT22;15732;48.534;20.382;2023-03-31T18:16:34;12.70;99.90
28520;DHT22;15732;48.534;20.382;2023-03-31T18:19:05;12.70;99.90
28520;DHT22;15732;48.534;20.382;2023-03-31T18:21:37;12.70;99.90
28520;DHT22;15732;48.534;20.382;2023-03-31T18:24:05;12.70;99.90
28520;DHT22;15732;48.534;20.382;2023-03-31T18:26:33;12.70;99.90
28520;DHT22;15732;48.534;20.382;2023-03-31T18:29:00;12.70;99.90
28520;DHT22;15732;48.534;20.382;2023-03-31T18:31:28;12.80;99.90
28520;DHT22;15732;48.534;20.382;2023-03-31T18:33:55;12.80;99.90
28520;DHT22;15732;48.534;20.382;2023-03-31T18:36:26;12.80;99.90
28520;DHT22;15732;48.534;20.382;2023-03-31T18:38:58;12.80;99.90
28520;DHT22;15732;48.534;20.382;2023-03-31T18:41:29;12.80;99.90
28520;DHT22;15732;48.534;20.382;2023-03-31T18:43:56;12.80;99.90
28520;DHT22;15732;48.534;20.382;2023-03-31T18:46:24;12.80;99.90
28520;DHT22;15732;48.534;20.382;2023-03-31T18:48:51;12.80;99.90
28520;DHT22;15732;48.534;20.382;2023-03-31T18:51:23;12.80;99.90
28520;DHT22;15732;48.534;20.382;2023-03-31T18:53:50;12.80;99.90
28520;DHT22;15732;48.534;20.382;2023-03-31T18:56:17;12.80;99.90
28520;DHT22;15732;48.534;20.382;2023-03-31T18:58:45;12.70;99.90
28520;DHT22;15732;48.534;20.382;2023-03-31T19:01:12;12.70;99.90
28520;DHT22;15732;48.534;20.382;2023-03-31T19:03:39;12.70;99.90
28520;DHT22;15732;48.534;20.382;2023-03-31T19:06:12;12.70;99.90
28520;DHT22;15732;48.534;20.382;2023-03-31T19:08:46;12.80;99.90
28520;DHT22;15732;48.534;20.382;2023-03-31T19:11:17;12.80;99.90
28520;DHT22;15732;48.534;20.382;2023-03-31T19:13:44;12.70;99.90
28520;DHT22;15732;48.534;20.382;2023-03-31T19:16:12;12.80;99.90
28520;DHT22;15732;48.534;20.382;2023-03-31T19:18:40;12.70;99.90